Time;durP1;ratioP1;P1;durP2;ratioP2;P2;SDS_P1;SDS_P2;PMS_P1;PMS_P2;Temp;Humidity;BMP_temperature;BMP_pressure;BME280_temperature;BME280_humidity;BME280_pressure;Samples;Min_cycle;Max_cycle;Signal;HPM_P1;HPM_P2
2022/11/10 00:06:11;;;;;;;10.05;8.02;;;;;;;14.18;68.36;100176.37;4380370;32;34788;-92
2022/11/10 00:08:53;;;;;;;9.60;4.15;;;;;;;14.38;67.32;100178.81;4353361;32;33477;-90
2022/11/10 00:11:50;;;;;;;7.80;6.65;;;;;;;14.34;67.38;100179.97;4358253;32;34144;-89
2022/11/10 00:18:03;;;;;;;14.38;6.12;;;;;;;14.32;67.84;100180.00;4367082;32;34258;-89
2022/11/10 00:20:49;;;;;;;11.68;8.57;;;;;;;14.32;67.74;100187.13;4365157;32;33918;-89
2022/11/10 00:23:37;;;;;;;6.00;5.43;;;;;;;14.29;67.91;100192.59;4364849;32;33881;-87
2022/11/10 00:26:23;;;;;;;8.05;6.15;;;;;;;14.41;67.56;100189.31;4347904;32;32927;-87
2022/11/10 00:29:10;;;;;;;10.05;7.72;;;;;;;14.67;66.26;100192.38;4353871;32;33771;-86
2022/11/10 00:31:56;;;;;;;7.68;5.00;;;;;;;14.43;66.85;100192.75;4365398;32;34580;-87
2022/11/10 00:34:42;;;;;;;8.45;7.18;;;;;;;14.24;67.81;100191.97;4346526;32;34077;-87
2022/11/10 00:37:29;;;;;;;11.12;6.15;;;;;;;14.18;68.05;100195.81;4359660;32;33843;-87
2022/11/10 00:40:15;;;;;;;16.00;8.65;;;;;;;14.23;68.01;100196.44;4359680;32;33612;-87
2022/11/10 00:43:01;;;;;;;17.25;6.50;;;;;;;14.27;68.00;100198.00;4357239;32;34025;-87
2022/11/10 00:45:48;;;;;;;7.72;6.30;;;;;;;14.22;68.10;100194.72;4363132;32;33264;-87
2022/11/10 00:48:34;;;;;;;8.38;6.97;;;;;;;14.57;66.80;100187.59;4363477;32;33016;-87
2022/11/10 00:51:26;;;;;;;5.62;5.10;;;;;;;14.35;67.61;100189.63;4353853;32;33526;-87
2022/11/10 00:54:12;;;;;;;10.63;7.78;;;;;;;14.31;67.76;100183.63;4350104;32;33347;-87
2022/11/10 00:56:58;;;;;;;5.75;4.87;;;;;;;14.25;68.02;100193.72;4355136;32;33334;-87
2022/11/10 00:59:45;;;;;;;5.62;5.15;;;;;;;14.33;67.90;100186.19;4346672;32;32719;-89
2022/11/10 01:02:37;;;;;;;9.05;6.60;;;;;;;14.35;67.88;100184.31;4364042;32;34794;-89
2022/11/10 01:05:23;;;;;;;8.23;7.53;;;;;;;14.32;68.02;100187.13;4341961;32;32649;-89
2022/11/10 01:08:10;;;;;;;4.57;4.20;;;;;;;14.35;67.92;100176.34;4352977;32;34247;-89
2022/11/10 01:11:01;;;;;;;12.10;4.90;;;;;;;14.39;67.87;100179.72;4329255;32;32850;-89
2022/11/10 01:13:52;;;;;;;14.70;8.75;;;;;;;14.39;67.80;100180.56;4351939;32;33043;-89
2022/11/10 01:16:39;;;;;;;9.25;5.68;;;;;;;14.41;67.73;100184.00;4350662;32;33307;-89
2022/11/10 01:19:25;;;;;;;7.47;5.90;;;;;;;14.49;67.41;100181.81;4336153;33;34093;-89
2022/11/10 01:22:12;;;;;;;10.38;8.32;;;;;;;14.38;67.71;100184.13;4349573;32;33568;-90
2022/11/10 01:25:02;;;;;;;8.82;7.05;;;;;;;14.46;67.34;100179.28;4340807;33;32376;-89
2022/11/10 01:28:06;;;;;;;9.73;7.87;;;;;;;14.43;67.54;100182.13;4332834;32;34258;-92
2022/11/10 01:30:59;;;;;;;9.70;6.00;;;;;;;14.40;67.75;100181.41;4365838;32;33314;-92
2022/11/10 01:33:42;;;;;;;11.93;6.70;;;;;;;14.46;67.73;100184.59;4354306;32;33443;-93
2022/11/10 01:36:25;;;;;;;7.30;6.60;;;;;;;14.40;67.72;100187.59;4373963;32;32549;-93
2022/11/10 01:39:09;;;;;;;10.88;5.95;;;;;;;14.41;67.77;100188.44;4356680;32;33973;-93
2022/11/10 01:41:52;;;;;;;7.00;5.07;;;;;;;14.38;67.84;100184.13;4305678;33;32485;-92
2022/11/10 01:44:34;;;;;;;7.90;7.22;;;;;;;14.29;68.27;100190.81;4357015;32;32915;-93
2022/11/10 01:47:17;;;;;;;4.28;3.97;;;;;;;14.33;68.19;100186.19;4367577;32;33129;-92
2022/11/10 01:50:11;;;;;;;7.87;5.28;;;;;;;14.38;68.03;100183.28;4374821;32;33848;-91
2022/11/10 01:52:57;;;;;;;6.10;5.55;;;;;;;14.42;68.05;100188.34;4350098;32;33184;-91
2022/11/10 01:55:41;;;;;;;10.18;4.35;;;;;;;14.73;66.55;100190.25;4350707;32;32206;-91
2022/11/10 01:58:48;;;;;;;10.43;8.20;;;;;;;14.73;66.41;100189.41;4365378;32;34569;-91
2022/11/10 02:01:31;;;;;;;29.98;6.87;;;;;;;14.39;67.54;100188.53;4352613;32;34120;-91
2022/11/10 02:04:15;;;;;;;6.57;5.95;;;;;;;14.42;67.80;100193.66;4334105;33;33366;-91
2022/11/10 02:07:20;;;;;;;11.38;4.65;;;;;;;14.28;68.17;100197.06;4347281;32;32841;-89
2022/11/10 02:10:13;;;;;;;28.40;8.88;;;;;;;14.29;68.36;100195.25;4342737;33;34007;-90
2022/11/10 02:12:58;;;;;;;5.87;4.82;;;;;;;14.45;68.07;100201.50;4356379;32;32910;-89
2022/11/10 02:15:40;;;;;;;7.70;5.75;;;;;;;14.69;66.78;100199.34;4343583;32;32749;-90
2022/11/10 02:18:38;;;;;;;10.55;6.90;;;;;;;14.48;67.67;100205.78;4342227;32;33076;-89
2022/11/10 02:21:32;;;;;;;15.88;5.97;;;;;;;14.47;67.64;100202.25;4369576;32;33798;-90
2022/11/10 02:24:19;;;;;;;4.28;3.87;;;;;;;14.71;66.72;100207.22;4366832;32;32802;-90
2022/11/10 02:27:07;;;;;;;4.43;4.05;;;;;;;14.33;67.72;100207.44;4346518;33;33958;-87
2022/11/10 02:29:54;;;;;;;3.72;3.53;;;;;;;14.15;68.72;100208.41;4338177;33;33493;-87
2022/11/10 02:32:40;;;;;;;14.07;4.60;;;;;;;14.20;68.70;100217.00;4347740;32;33158;-87
2022/11/10 02:35:27;;;;;;;10.68;4.65;;;;;;;14.32;68.44;100216.34;4340052;32;32877;-87
2022/11/10 02:38:14;;;;;;;4.47;3.62;;;;;;;14.29;68.46;100213.84;4352861;32;33662;-87
2022/11/10 02:41:00;;;;;;;4.47;3.08;;;;;;;14.38;68.21;100216.03;4350910;32;31977;-87
2022/11/10 02:43:46;;;;;;;5.07;3.95;;;;;;;14.18;68.94;100218.88;4349583;32;33239;-87
2022/11/10 02:46:36;;;;;;;5.65;4.62;;;;;;;14.06;69.32;100223.03;4362749;32;32919;-86
2022/11/10 02:49:44;;;;;;;8.90;5.00;;;;;;;14.16;69.08;100218.09;4304185;33;32858;-90
2022/11/10 02:52:35;;;;;;;6.82;5.72;;;;;;;14.43;68.14;100216.66;4312305;33;32533;-89
2022/11/10 02:55:22;;;;;;;3.33;2.00;;;;;;;14.23;68.89;100224.78;4311311;33;33243;-87
2022/11/10 02:58:09;;;;;;;3.42;3.10;;;;;;;14.29;68.74;100228.00;4306747;33;34124;-87
2022/11/10 03:00:56;;;;;;;4.95;4.50;;;;;;;14.32;68.61;100227.84;4312455;33;34025;-87
2022/11/10 03:03:42;;;;;;;15.55;6.78;;;;;;;14.39;68.27;100231.03;4313615;33;33316;-90
2022/11/10 03:06:28;;;;;;;3.17;2.47;;;;;;;14.34;68.58;100241.06;4296241;33;32266;-90
2022/11/10 03:09:17;;;;;;;10.32;3.75;;;;;;;14.22;69.02;100252.31;4294191;33;33367;-88
2022/11/10 03:12:03;;;;;;;4.75;3.47;;;;;;;14.16;69.17;100247.31;4303057;33;32897;-88
2022/11/10 03:14:50;;;;;;;5.25;4.78;;;;;;;14.34;68.68;100259.66;4294089;33;32236;-88
2022/11/10 03:17:38;;;;;;;3.12;2.67;;;;;;;14.32;68.62;100254.41;4304108;33;34190;-89
2022/11/10 03:20:26;;;;;;;4.68;3.60;;;;;;;14.27;68.88;100259.09;4303762;33;32618;-86
2022/11/10 03:23:12;;;;;;;3.50;3.05;;;;;;;14.24;68.99;100255.72;4303721;33;33215;-89
2022/11/10 03:25:58;;;;;;;4.90;4.45;;;;;;;14.39;68.33;100260.28;4303799;33;31980;-87
2022/11/10 03:28:45;;;;;;;7.82;5.82;;;;;;;14.49;67.97;100258.88;4293592;33;32736;-88
2022/11/10 03:31:31;;;;;;;7.03;5.15;;;;;;;14.32;68.33;100253.53;4293366;33;34087;-88
2022/11/10 03:34:18;;;;;;;9.68;6.25;;;;;;;14.29;68.59;100259.00;4303549;33;32553;-87
2022/11/10 03:37:04;;;;;;;8.20;4.70;;;;;;;14.40;68.26;100258.47;4299023;33;32641;-87
2022/11/10 03:39:50;;;;;;;10.65;7.10;;;;;;;14.23;68.74;100257.53;4303819;33;34260;-89
2022/11/10 03:42:41;;;;;;;12.25;5.55;;;;;;;14.16;68.98;100265.91;4303578;33;33467;-88
2022/11/10 03:45:28;;;;;;;7.07;5.43;;;;;;;14.19;68.90;100265.72;4303622;33;34700;-88
2022/11/10 03:48:14;;;;;;;5.60;5.18;;;;;;;14.13;69.09;100260.75;4314398;33;32838;-88
2022/11/10 03:51:01;;;;;;;5.85;5.30;;;;;;;14.15;69.03;100274.78;4326197;33;34235;-88
2022/11/10 03:53:48;;;;;;;5.45;3.92;;;;;;;14.14;69.04;100276.59;4324459;33;33373;-88
2022/11/10 03:56:36;;;;;;;3.72;3.33;;;;;;;14.13;68.85;100276.66;4328189;33;33559;-87
2022/11/10 03:59:22;;;;;;;5.32;4.07;;;;;;;14.23;68.35;100275.25;4328508;33;32354;-88
2022/11/10 04:02:08;;;;;;;4.85;4.43;;;;;;;14.35;67.68;100274.66;4330091;33;32833;-88
2022/11/10 04:11:06;;;;;;;3.47;3.00;;;;;;;14.15;68.30;100296.03;4326208;33;32298;-88
2022/11/10 04:16:57;;;;;;;11.40;4.87;;;;;;;14.06;68.46;100298.22;4326060;33;35040;-87
2022/11/10 04:19:43;;;;;;;4.47;4.15;;;;;;;13.97;68.64;100304.00;4327811;33;33240;-88
2022/11/10 04:26:27;;;;;;;6.53;4.30;;;;;;;13.97;68.67;100305.81;4384167;32;33418;-88
2022/11/10 04:31:28;;;;;;;5.03;4.18;;;;;;;13.99;68.72;100310.09;4360763;32;34384;-89
2022/11/10 04:34:19;;;;;;;9.35;4.05;;;;;;;14.03;68.43;100309.00;4374219;32;33348;-89
2022/11/10 04:37:06;;;;;;;4.43;3.90;;;;;;;14.07;68.33;100305.25;4370173;32;32759;-89
2022/11/10 04:39:58;;;;;;;3.45;2.60;;;;;;;14.06;68.49;100308.84;4366503;32;33189;-89
2022/11/10 04:42:44;;;;;;;5.97;5.47;;;;;;;14.07;68.39;100307.91;4366237;32;33894;-91
2022/11/10 04:45:32;;;;;;;21.50;5.43;;;;;;;14.11;68.27;100313.09;4351452;32;32460;-91
2022/11/10 04:48:17;;;;;;;3.80;2.53;;;;;;;13.96;68.85;100312.91;4378186;32;33615;-90
2022/11/10 04:51:05;;;;;;;7.90;4.32;;;;;;;14.14;68.15;100313.75;4331352;33;32979;-92
2022/11/10 04:53:50;;;;;;;6.93;3.72;;;;;;;14.18;67.66;100314.47;4335128;33;32877;-92
2022/11/10 04:56:33;;;;;;;6.00;4.00;;;;;;;14.03;67.90;100319.63;4382125;32;32633;-92
2022/11/10 04:59:18;;;;;;;3.17;2.53;;;;;;;13.89;68.36;100330.06;4342332;32;32908;-93
2022/11/10 05:01:59;;;;;;;4.82;4.43;;;;;;;13.95;68.25;100331.53;4359026;32;32997;-93
2022/11/10 05:04:41;;;;;;;8.50;5.70;;;;;;;13.92;68.29;100340.53;4376168;32;33222;-95
2022/11/10 05:07:31;;;;;;;6.55;4.15;;;;;;;14.13;67.63;100348.38;4368270;32;32285;-96
2022/11/10 05:10:14;;;;;;;3.20;2.95;;;;;;;13.88;68.38;100354.03;4352464;32;33769;-88
2022/11/10 05:13:00;;;;;;;2.95;2.70;;;;;;;14.05;67.93;100348.75;4367813;32;33011;-88
2022/11/10 05:15:47;;;;;;;6.22;4.85;;;;;;;14.04;67.88;100347.88;4359324;32;32444;-88
2022/11/10 05:18:34;;;;;;;4.82;4.15;;;;;;;14.00;68.09;100343.66;4376088;32;32599;-88
2022/11/10 05:21:43;;;;;;;2.12;1.92;;;;;;;14.03;67.98;100353.28;4375956;32;32531;-89
2022/11/10 05:24:32;;;;;;;6.37;4.15;;;;;;;13.95;68.14;100355.44;4370889;32;34081;-86
2022/11/10 05:27:19;;;;;;;10.52;6.28;;;;;;;14.04;67.96;100360.31;4366685;32;33861;-86
2022/11/10 05:30:08;;;;;;;7.00;4.22;;;;;;;14.07;67.69;100368.12;4375436;32;33907;-86
2022/11/10 05:32:56;;;;;;;10.57;4.15;;;;;;;14.07;67.61;100363.69;4375209;32;33090;-86
2022/11/10 05:35:45;;;;;;;3.47;3.17;;;;;;;14.05;67.65;100364.66;4374836;32;34147;-86
2022/11/10 05:38:31;;;;;;;5.87;3.40;;;;;;;13.87;68.34;100371.75;4351089;32;32523;-86
2022/11/10 05:41:19;;;;;;;1.87;1.52;;;;;;;13.96;67.97;100373.97;4373507;32;32981;-86
2022/11/10 05:44:53;;;;;;;7.72;4.12;;;;;;;13.96;68.05;100376.63;4369168;32;32522;-87
2022/11/10 05:47:47;;;;;;;8.77;3.12;;;;;;;14.16;67.53;100380.97;4372518;32;33182;-87
2022/11/10 05:50:33;;;;;;;2.28;2.17;;;;;;;14.21;66.99;100388.69;4371381;32;32683;-87
2022/11/10 05:53:20;;;;;;;5.70;4.70;;;;;;;14.21;67.09;100386.91;4375452;32;32544;-89
2022/11/10 05:56:09;;;;;;;7.95;2.37;;;;;;;14.04;67.44;100398.34;4359848;32;34250;-86
2022/11/10 05:58:56;;;;;;;5.20;3.95;;;;;;;13.90;67.99;100399.94;4375975;32;32590;-89
2022/11/10 06:02:03;;;;;;;6.32;5.07;;;;;;;13.88;68.14;100407.97;4376961;32;33258;-89
2022/11/10 06:04:51;;;;;;;1.52;1.27;;;;;;;14.16;67.37;100417.28;4354205;32;32809;-88
2022/11/10 06:07:39;;;;;;;4.97;3.50;;;;;;;14.00;67.86;100412.69;4357585;32;32362;-89
2022/11/10 06:10:29;;;;;;;10.45;5.30;;;;;;;14.12;67.62;100423.69;4390122;32;33377;-90
2022/11/10 06:16:28;;;;;;;5.75;4.68;;;;;;;14.63;64.97;100424.72;4364185;32;32643;-91
2022/11/10 06:19:15;;;;;;;5.28;4.43;;;;;;;14.35;65.79;100434.91;4362077;32;33153;-90
2022/11/10 06:22:05;;;;;;;4.10;3.22;;;;;;;14.03;67.06;100439.09;4364041;32;33117;-90
2022/11/10 06:24:53;;;;;;;6.12;3.47;;;;;;;13.95;67.87;100449.22;4391151;32;33076;-93
2022/11/10 06:27:45;;;;;;;7.57;4.70;;;;;;;14.00;67.42;100455.16;4339258;33;32038;-93
2022/11/10 06:30:34;;;;;;;2.20;2.05;;;;;;;14.27;66.71;100462.75;4348667;32;32306;-90
2022/11/10 06:33:33;;;;;;;3.30;2.42;;;;;;;14.17;66.92;100459.69;4356612;32;32635;-91
2022/11/10 06:36:33;;;;;;;3.25;3.03;;;;;;;14.01;67.16;100466.69;4364599;32;32553;-88
2022/11/10 06:39:19;;;;;;;5.87;3.97;;;;;;;14.23;66.17;100463.84;4376968;32;32638;-89
2022/11/10 06:42:11;;;;;;;7.93;4.18;;;;;;;14.21;66.42;100465.72;4373955;32;33089;-89
2022/11/10 06:44:59;;;;;;;4.93;4.57;;;;;;;14.38;65.70;100462.25;4362512;32;34265;-89
2022/11/10 06:48:08;;;;;;;4.75;3.70;;;;;;;13.97;67.22;100465.97;4367399;32;32675;-88
2022/11/10 06:51:01;;;;;;;16.27;5.82;;;;;;;14.04;67.55;100479.78;4395537;32;32415;-90
2022/11/10 06:54:11;;;;;;;6.97;2.80;;;;;;;14.42;65.63;100488.59;4352656;32;32905;-89
2022/11/10 06:57:00;;;;;;;8.23;3.90;;;;;;;14.44;65.39;100497.34;4357094;32;34134;-89
2022/11/10 06:59:48;;;;;;;6.00;5.50;;;;;;;14.35;65.35;100505.78;4355536;32;33091;-89
2022/11/10 07:02:37;;;;;;;4.68;3.50;;;;;;;14.03;66.56;100504.63;4357661;32;33042;-89
2022/11/10 07:05:36;;;;;;;5.57;4.00;;;;;;;14.21;66.38;100508.22;4358126;32;33007;-90
2022/11/10 07:08:34;;;;;;;10.02;5.45;;;;;;;14.07;67.11;100507.06;4384627;32;32706;-89
2022/11/10 07:11:18;;;;;;;11.40;3.72;;;;;;;13.86;67.60;100520.47;4347923;32;33410;-89
2022/11/10 07:14:16;;;;;;;4.43;3.95;;;;;;;14.31;66.10;100525.44;4347226;32;32420;-89
2022/11/10 07:17:04;;;;;;;7.85;5.68;;;;;;;14.00;67.13;100523.34;4347773;32;33266;-89
2022/11/10 07:19:48;;;;;;;3.08;2.83;;;;;;;13.91;67.65;100523.78;4358783;32;32772;-90
2022/11/10 07:22:48;;;;;;;12.43;5.57;;;;;;;13.91;67.68;100519.34;4321234;33;33034;-90
2022/11/10 07:25:34;;;;;;;10.20;5.15;;;;;;;13.90;67.30;100530.03;4367085;32;32716;-85
2022/11/10 07:28:21;;;;;;;5.15;3.28;;;;;;;14.02;67.04;100527.66;4351218;32;33977;-86
2022/11/10 07:31:13;;;;;;;4.53;4.00;;;;;;;14.25;66.30;100533.72;4368530;32;33274;-85
2022/11/10 07:34:00;;;;;;;4.40;3.65;;;;;;;14.04;67.01;100530.25;4359195;32;33178;-85
2022/11/10 07:36:46;;;;;;;5.87;4.90;;;;;;;14.52;65.23;100536.84;4351185;32;34198;-86
2022/11/10 07:39:34;;;;;;;5.93;3.70;;;;;;;14.08;66.75;100530.03;4362402;32;33969;-86
2022/11/10 07:42:21;;;;;;;3.90;3.55;;;;;;;14.20;66.75;100535.72;4354646;32;32556;-86
2022/11/10 07:45:08;;;;;;;4.30;3.87;;;;;;;14.13;66.93;100544.91;4372102;32;33012;-86
2022/11/10 07:48:03;;;;;;;4.40;4.03;;;;;;;14.30;66.09;100550.28;4352530;32;32228;-85
2022/11/10 07:50:52;;;;;;;5.43;3.33;;;;;;;14.05;67.06;100559.41;4356129;32;33349;-86
2022/11/10 07:53:41;;;;;;;5.32;4.87;;;;;;;14.28;66.18;100546.81;4355740;32;33347;-86
2022/11/10 07:56:27;;;;;;;6.32;3.95;;;;;;;14.32;65.87;100551.06;4366989;32;33190;-85
2022/11/10 07:59:15;;;;;;;11.57;4.65;;;;;;;14.51;65.02;100556.41;4356750;32;33623;-85
2022/11/10 08:02:02;;;;;;;3.53;2.80;;;;;;;14.53;64.93;100552.75;4362624;32;33101;-85
2022/11/10 08:04:52;;;;;;;5.10;4.78;;;;;;;14.54;64.58;100557.12;4361002;32;33315;-86
2022/11/10 08:07:42;;;;;;;8.70;3.40;;;;;;;14.45;64.75;100556.66;4360193;32;32604;-85
2022/11/10 08:10:30;;;;;;;4.68;3.35;;;;;;;14.59;64.65;100570.19;4356427;32;33543;-87
2022/11/10 08:13:19;;;;;;;6.15;4.25;;;;;;;14.65;64.37;100572.53;4364857;32;33467;-88
2022/11/10 08:16:08;;;;;;;5.15;2.78;;;;;;;14.40;65.15;100572.81;4364334;32;32721;-88
2022/11/10 08:18:55;;;;;;;4.68;4.25;;;;;;;14.35;65.57;100581.00;4354104;32;32649;-88
2022/11/10 08:21:45;;;;;;;6.72;4.60;;;;;;;14.15;66.38;100590.81;4359004;32;33608;-88
2022/11/10 08:24:31;;;;;;;4.47;3.22;;;;;;;14.38;65.24;100582.66;4361542;32;34287;-89
2022/11/10 08:27:17;;;;;;;10.23;4.97;;;;;;;14.55;64.41;100588.06;4352794;32;32861;-88
2022/11/10 08:30:07;;;;;;;6.72;4.85;;;;;;;14.57;65.08;100586.22;4351048;32;34560;-87
2022/11/10 08:32:57;;;;;;;7.93;3.75;;;;;;;14.77;64.45;100579.94;4359114;32;32462;-88
2022/11/10 08:35:46;;;;;;;2.40;2.10;;;;;;;14.60;64.87;100587.84;4358185;32;33217;-83
2022/11/10 08:38:33;;;;;;;5.15;2.87;;;;;;;14.45;64.72;100589.41;4366693;32;33751;-85
2022/11/10 08:41:20;;;;;;;6.32;2.97;;;;;;;14.75;63.58;100595.09;4357492;32;34007;-85
2022/11/10 08:44:07;;;;;;;4.85;4.45;;;;;;;14.48;64.90;100609.69;4359712;32;33164;-84
2022/11/10 08:47:02;;;;;;;4.87;3.85;;;;;;;14.48;65.03;100621.19;4353022;32;33662;-84
2022/11/10 08:49:50;;;;;;;3.17;2.87;;;;;;;14.68;63.42;100627.37;4352844;32;32658;-84
2022/11/10 08:52:37;;;;;;;2.97;2.78;;;;;;;14.53;64.02;100635.12;4353410;32;34049;-83
2022/11/10 08:55:23;;;;;;;3.90;2.72;;;;;;;15.05;61.37;100634.44;4351645;32;34124;-83
2022/11/10 08:58:14;;;;;;;5.37;3.42;;;;;;;14.76;62.71;100643.78;4354012;32;33629;-83
2022/11/10 09:01:01;;;;;;;4.07;3.23;;;;;;;14.81;63.08;100655.97;4358058;32;34148;-83
2022/11/10 09:03:47;;;;;;;8.65;4.87;;;;;;;14.80;62.77;100650.69;4360074;32;33842;-83
2022/11/10 09:06:34;;;;;;;2.87;2.67;;;;;;;14.60;63.38;100656.97;4347969;32;32874;-84
2022/11/10 09:09:23;;;;;;;6.50;4.05;;;;;;;14.55;63.65;100654.50;4355272;32;33666;-84
2022/11/10 09:12:10;;;;;;;7.72;3.33;;;;;;;14.58;63.23;100646.41;4352928;32;34087;-83
2022/11/10 09:14:56;;;;;;;3.67;2.12;;;;;;;14.48;62.89;100657.50;4361910;32;34013;-83
2022/11/10 09:17:43;;;;;;;10.85;3.70;;;;;;;14.68;61.67;100660.13;4353345;32;32219;-83
2022/11/10 09:20:35;;;;;;;3.03;2.85;;;;;;;14.62;62.82;100670.16;4356077;32;33173;-84
2022/11/10 09:23:23;;;;;;;4.93;3.72;;;;;;;14.43;63.54;100672.78;4363486;32;35181;-83
2022/11/10 09:26:11;;;;;;;2.20;2.10;;;;;;;15.05;61.01;100675.19;4362554;32;33275;-84
2022/11/10 09:29:00;;;;;;;0.98;0.98;;;;;;;14.95;61.01;100676.53;4356283;32;32726;-86
2022/11/10 09:31:35;;;;;;;5.60;3.37;;;;;;;15.05;60.08;100672.53;4351802;32;33336;-91
2022/11/10 09:34:33;;;;;;;4.18;3.42;;;;;;;14.92;60.17;100668.75;4319957;33;32440;-93
2022/11/10 09:37:32;;;;;;;4.85;4.40;;;;;;;14.72;61.03;100679.47;4330220;33;33227;-93
2022/11/10 09:41:02;;;;;;;5.53;3.28;;;;;;;14.64;61.84;100681.59;4342653;33;32729;-92
2022/11/10 09:44:14;;;;;;;3.85;2.95;;;;;;;14.73;61.52;100678.53;4362643;32;32970;-91
2022/11/10 09:47:19;;;;;;;11.73;4.53;;;;;;;14.73;60.63;100683.84;4321710;33;33865;-91
2022/11/10 09:50:34;;;;;;;5.97;4.53;;;;;;;14.19;62.50;100688.88;4332221;33;32911;-91
2022/11/10 09:53:39;;;;;;;3.95;3.65;;;;;;;13.92;64.06;100690.97;4378377;32;33975;-92
2022/11/10 09:56:38;;;;;;;1.00;1.00;;;;;;;14.25;62.99;100695.75;4354240;32;34194;-92
2022/11/10 09:59:38;;;;;;;5.68;2.75;;;;;;;14.32;62.97;100695.38;4357548;32;32314;-90
2022/11/10 10:02:48;;;;;;;8.20;3.22;;;;;;;14.19;63.54;100704.81;4319284;33;32273;-91
2022/11/10 10:05:34;;;;;;;4.97;2.15;;;;;;;14.40;62.97;100702.16;4341009;32;32271;-88
2022/11/10 10:08:36;;;;;;;13.07;5.65;;;;;;;14.40;63.27;100711.00;4340734;33;35503;-88
2022/11/10 10:11:37;;;;;;;5.62;5.03;;;;;;;14.40;64.33;100711.00;4341163;33;33510;-88
2022/11/10 10:14:58;;;;;;;7.33;5.13;;;;;;;13.94;66.42;100715.66;4336125;32;33768;-89
2022/11/10 10:18:06;;;;;;;5.57;4.57;;;;;;;14.55;64.37;100710.31;4378126;32;33100;-89
2022/11/10 10:21:37;;;;;;;4.03;3.72;;;;;;;14.62;64.38;100710.91;4392167;32;32056;-89
2022/11/10 10:24:31;;;;;;;7.03;3.78;;;;;;;14.59;64.59;100719.03;4326385;32;32399;-91
2022/11/10 10:27:25;;;;;;;2.67;2.33;;;;;;;14.75;64.30;100716.50;4337530;33;33429;-91
2022/11/10 10:30:14;;;;;;;7.18;5.32;;;;;;;14.62;64.47;100712.69;4339133;32;33872;-93
2022/11/10 10:33:15;;;;;;;3.20;2.97;;;;;;;14.97;62.88;100703.09;4354612;32;32907;-87
2022/11/10 10:36:01;;;;;;;8.27;5.43;;;;;;;14.98;63.59;100700.34;4353589;32;33089;-86
2022/11/10 10:38:54;;;;;;;7.57;6.65;;;;;;;15.19;63.16;100708.22;4371381;32;34104;-85
2022/11/10 10:41:45;;;;;;;10.13;7.12;;;;;;;15.28;62.34;100705.97;4364115;32;32889;-85
2022/11/10 10:44:38;;;;;;;11.38;5.80;;;;;;;14.96;63.56;100720.84;4357165;32;35562;-83
2022/11/10 10:47:36;;;;;;;4.00;3.58;;;;;;;15.09;63.07;100719.31;4369603;32;33925;-83
2022/11/10 10:50:35;;;;;;;3.70;3.35;;;;;;;15.50;61.26;100718.25;4368115;32;33804;-83
2022/11/10 10:53:24;;;;;;;12.73;4.68;;;;;;;15.27;62.31;100720.22;4364255;32;32731;-83
2022/11/10 10:56:20;;;;;;;3.83;3.53;;;;;;;15.20;62.03;100720.62;4358750;32;34102;-83
2022/11/10 10:59:18;;;;;;;12.98;7.43;;;;;;;15.34;61.76;100720.81;4354985;32;32891;-83
2022/11/10 11:05:19;;;;;;;4.63;3.83;;;;;;;15.72;60.56;100728.72;4366935;32;33183;-85
2022/11/10 11:08:17;;;;;;;5.60;5.10;;;;;;;15.38;61.18;100725.00;4371143;32;33594;-85
2022/11/10 11:11:08;;;;;;;3.95;3.08;;;;;;;15.91;59.46;100728.66;4373216;32;34130;-85
2022/11/10 11:14:21;;;;;;;3.97;3.60;;;;;;;15.55;60.74;100733.03;4354426;32;33201;-84
2022/11/10 11:17:17;;;;;;;8.77;3.90;;;;;;;15.59;60.87;100750.59;4370342;32;33860;-84
2022/11/10 11:20:09;;;;;;;2.25;2.15;;;;;;;15.89;60.39;100752.69;4345588;32;32667;-86
2022/11/10 11:23:19;;;;;;;3.25;2.95;;;;;;;15.91;60.49;100750.84;4352559;32;33410;-86
2022/11/10 11:26:18;;;;;;;9.07;5.20;;;;;;;15.86;59.86;100752.88;4357918;32;34073;-86
2022/11/10 11:29:30;;;;;;;3.80;2.65;;;;;;;15.85;59.72;100751.12;4371141;32;32694;-86
2022/11/10 11:32:33;;;;;;;3.78;2.53;;;;;;;15.84;60.29;100746.75;4370163;32;33417;-88
2022/11/10 11:35:41;;;;;;;6.87;4.68;;;;;;;16.07;58.97;100748.25;4359251;32;33444;-85
2022/11/10 11:38:40;;;;;;;6.15;4.90;;;;;;;15.60;60.50;100751.44;4367771;32;33766;-85
2022/11/10 11:41:32;;;;;;;4.15;3.10;;;;;;;15.36;61.19;100754.38;4373065;32;31776;-85
2022/11/10 11:45:13;;;;;;;11.55;4.10;;;;;;;15.52;59.69;100753.62;4376060;32;33015;-85
2022/11/10 11:48:27;;;;;;;3.60;3.30;;;;;;;15.21;61.26;100759.59;4359668;32;34777;-85
2022/11/10 11:51:57;;;;;;;2.75;2.55;;;;;;;15.82;59.06;100760.13;4369262;32;34349;-85
2022/11/10 11:54:50;;;;;;;3.75;3.40;;;;;;;15.51;60.20;100754.56;4368408;32;32455;-85
2022/11/10 11:58:14;;;;;;;4.87;3.17;;;;;;;15.37;60.69;100761.41;4370979;32;32967;-85
2022/11/10 12:01:13;;;;;;;4.57;4.18;;;;;;;15.68;59.60;100759.09;4363869;32;33710;-85
2022/11/10 12:04:22;;;;;;;3.65;3.35;;;;;;;15.44;60.44;100759.34;4368496;32;33924;-84
2022/11/10 12:07:09;;;;;;;8.10;3.75;;;;;;;15.75;59.28;100755.19;4367476;32;33052;-84
2022/11/10 12:10:23;;;;;;;2.67;2.40;;;;;;;15.62;59.30;100754.91;4374694;32;33322;-85
2022/11/10 12:13:25;;;;;;;6.55;4.57;;;;;;;15.02;61.88;100760.44;4374580;32;34259;-85
2022/11/10 12:16:28;;;;;;;6.47;2.97;;;;;;;14.98;62.16;100763.31;4368285;32;33677;-85
2022/11/10 12:19:21;;;;;;;13.70;4.95;;;;;;;15.10;61.51;100762.75;4367131;32;34080;-91
2022/11/10 12:22:24;;;;;;;2.20;2.03;;;;;;;14.94;62.10;100775.03;4364878;32;32367;-92
2022/11/10 12:25:46;;;;;;;0.75;0.70;;;;;;;15.03;62.23;100783.44;4343669;32;34225;-92
2022/11/10 12:28:52;;;;;;;5.45;1.85;;;;;;;15.60;59.62;100776.28;4358231;32;33172;-92
2022/11/10 12:31:54;;;;;;;3.37;2.25;;;;;;;15.04;61.91;100779.84;4364175;32;33082;-92
2022/11/10 12:35:01;;;;;;;5.50;4.00;;;;;;;14.75;62.48;100783.84;4345345;32;33457;-93
2022/11/10 12:38:01;;;;;;;6.62;4.35;;;;;;;15.02;61.43;100797.69;4351027;32;33592;-85
2022/11/10 12:40:51;;;;;;;6.70;3.45;;;;;;;14.94;62.53;100805.12;4344781;32;34425;-86
2022/11/10 12:43:53;;;;;;;2.97;2.78;;;;;;;14.62;63.78;100797.75;4348075;32;33245;-86
2022/11/10 12:46:43;;;;;;;4.18;3.15;;;;;;;15.36;61.54;100804.06;4354019;32;33233;-86
2022/11/10 12:49:50;;;;;;;2.00;1.90;;;;;;;15.00;62.88;100804.88;4343324;32;33735;-86
2022/11/10 12:52:45;;;;;;;2.42;2.22;;;;;;;14.85;63.73;100806.41;4351152;32;32920;-85
2022/11/10 12:55:40;;;;;;;9.05;4.82;;;;;;;15.09;62.48;100804.44;4338998;32;33554;-86
2022/11/10 12:58:39;;;;;;;4.57;4.18;;;;;;;14.64;64.13;100812.72;4366157;32;32198;-92
2022/11/10 13:01:42;;;;;;;5.47;4.43;;;;;;;14.97;63.15;100807.66;4379859;32;33959;-93
2022/11/10 13:04:27;;;;;;;5.10;3.58;;;;;;;14.89;63.83;100800.97;4333510;33;34639;-93
2022/11/10 13:07:14;;;;;;;7.25;3.35;;;;;;;14.67;64.12;100803.72;4335901;33;32349;-93
2022/11/10 13:10:26;;;;;;;3.58;2.87;;;;;;;14.84;63.18;100806.50;4353533;32;33179;-93
2022/11/10 13:13:27;;;;;;;2.72;2.53;;;;;;;15.22;61.90;100807.38;4326659;33;32225;-92
2022/11/10 13:16:39;;;;;;;6.78;3.80;;;;;;;14.68;63.52;100813.44;4333205;33;32930;-92
2022/11/10 13:19:28;;;;;;;3.75;2.87;;;;;;;14.81;62.92;100814.59;4397776;32;32329;-92
2022/11/10 13:22:32;;;;;;;7.30;4.30;;;;;;;14.71;63.03;100821.25;4351508;32;33235;-92
2022/11/10 13:25:35;;;;;;;2.20;2.03;;;;;;;14.50;63.59;100821.28;4396919;32;33838;-92
2022/11/10 13:28:46;;;;;;;11.48;5.00;;;;;;;14.73;62.74;100828.25;4369948;32;33549;-93
2022/11/10 13:32:04;;;;;;;8.88;4.78;;;;;;;14.53;63.46;100829.13;4357587;32;32683;-92
2022/11/10 13:35:28;;;;;;;3.58;2.58;;;;;;;14.50;63.38;100826.59;4362767;32;32742;-92
2022/11/10 13:38:30;;;;;;;3.10;2.85;;;;;;;14.31;64.22;100837.13;4353566;32;33613;-92
2022/11/10 13:41:32;;;;;;;6.37;2.78;;;;;;;14.52;63.44;100851.31;4351526;32;33890;-91
2022/11/10 13:44:40;;;;;;;3.53;3.25;;;;;;;14.75;62.30;100852.09;4327406;33;31842;-92
2022/11/10 13:48:13;;;;;;;8.55;6.45;;;;;;;15.30;60.00;100841.63;4325980;33;33331;-92
2022/11/10 13:51:23;;;;;;;4.12;3.70;;;;;;;14.92;61.22;100849.56;4337253;33;35495;-92
2022/11/10 13:54:29;;;;;;;3.03;2.83;;;;;;;14.95;61.42;100854.72;4380207;32;32207;-92